sensor_id;sensor_type;location;lat;lon;timestamp;pressure;altitude;pressure_sealevel;temperature;humidity
76201;BME280;64981;52.930;9.266;2023-04-25T00:02:00;100291.56;;;8.15;76.25
76201;BME280;64981;52.930;9.266;2023-04-25T00:04:26;100295.34;;;8.12;76.70
76201;BME280;64981;52.930;9.266;2023-04-25T00:06:53;100304.25;;;8.19;76.61
76201;BME280;64981;52.930;9.266;2023-04-25T00:09:19;100301.63;;;8.19;76.94
76201;BME280;64981;52.930;9.266;2023-04-25T00:11:45;100301.13;;;8.16;76.43
76201;BME280;64981;52.930;9.266;2023-04-25T00:14:10;100295.72;;;8.17;76.37
76201;BME280;64981;52.930;9.266;2023-04-25T00:16:36;100311.31;;;8.19;76.68
76201;BME280;64981;52.930;9.266;2023-04-25T00:19:02;100308.78;;;8.01;76.68
76201;BME280;64981;52.930;9.266;2023-04-25T00:21:28;100303.13;;;7.96;77.46
76201;BME280;64981;52.930;9.266;2023-04-25T00:23:55;100309.59;;;8.02;77.82
76201;BME280;64981;52.930;9.266;2023-04-25T00:26:21;100302.72;;;8.09;77.14
76201;BME280;64981;52.930;9.266;2023-04-25T00:28:47;100299.03;;;8.28;76.74
76201;BME280;64981;52.930;9.266;2023-04-25T00:31:13;100319.09;;;8.29;76.97
76201;BME280;64981;52.930;9.266;2023-04-25T00:33:38;100328.31;;;7.99;78.45
76201;BME280;64981;52.930;9.266;2023-04-25T00:36:05;100334.06;;;8.02;78.29
76201;BME280;64981;52.930;9.266;2023-04-25T00:38:31;100330.63;;;7.76;77.30
76201;BME280;64981;52.930;9.266;2023-04-25T00:40:56;100335.81;;;7.86;77.44
76201;BME280;64981;52.930;9.266;2023-04-25T00:43:26;100331.75;;;7.99;76.47
76201;BME280;64981;52.930;9.266;2023-04-25T00:45:52;100332.00;;;7.80;76.32
76201;BME280;64981;52.930;9.266;2023-04-25T00:48:18;100333.78;;;7.80;76.21
76201;BME280;64981;52.930;9.266;2023-04-25T00:50:52;100336.72;;;7.77;76.49
76201;BME280;64981;52.930;9.266;2023-04-25T00:53:20;100346.84;;;7.89;75.58
76201;BME280;64981;52.930;9.266;2023-04-25T00:55:47;100346.34;;;7.68;75.54
76201;BME280;64981;52.930;9.266;2023-04-25T00:58:13;100346.25;;;7.78;75.51
76201;BME280;64981;52.930;9.266;2023-04-25T01:00:39;100337.91;;;7.82;75.36
76201;BME280;64981;52.930;9.266;2023-04-25T01:03:06;100343.41;;;7.71;75.94
76201;BME280;64981;52.930;9.266;2023-04-25T01:05:31;100340.09;;;7.69;76.13
76201;BME280;64981;52.930;9.266;2023-04-25T01:07:57;100348.91;;;7.60;76.42
76201;BME280;64981;52.930;9.266;2023-04-25T01:10:22;100349.41;;;7.81;75.49
76201;BME280;64981;52.930;9.266;2023-04-25T01:12:48;100353.13;;;7.71;75.66
76201;BME280;64981;52.930;9.266;2023-04-25T01:15:13;100352.41;;;7.69;75.55
76201;BME280;64981;52.930;9.266;2023-04-25T01:17:40;100352.28;;;7.70;75.94
76201;BME280;64981;52.930;9.266;2023-04-25T01:20:06;100354.97;;;7.78;75.74
76201;BME280;64981;52.930;9.266;2023-04-25T01:22:33;100356.22;;;7.74;75.24
76201;BME280;64981;52.930;9.266;2023-04-25T01:24:59;100357.38;;;7.72;75.15
76201;BME280;64981;52.930;9.266;2023-04-25T01:27:25;100357.22;;;7.73;75.35
76201;BME280;64981;52.930;9.266;2023-04-25T01:29:52;100357.84;;;7.67;74.85
76201;BME280;64981;52.930;9.266;2023-04-25T01:32:19;100361.31;;;7.68;74.07
76201;BME280;64981;52.930;9.266;2023-04-25T01:34:45;100365.16;;;7.81;73.95
76201;BME280;64981;52.930;9.266;2023-04-25T01:37:11;100356.06;;;7.68;73.50
76201;BME280;64981;52.930;9.266;2023-04-25T01:39:37;100370.22;;;7.75;73.03
76201;BME280;64981;52.930;9.266;2023-04-25T01:42:02;100356.44;;;7.81;72.17
76201;BME280;64981;52.930;9.266;2023-04-25T01:44:28;100370.38;;;7.73;71.57
76201;BME280;64981;52.930;9.266;2023-04-25T01:46:54;100362.97;;;7.51;72.36
76201;BME280;64981;52.930;9.266;2023-04-25T01:49:20;100373.63;;;7.49;72.08
76201;BME280;64981;52.930;9.266;2023-04-25T01:51:46;100384.88;;;7.24;72.62
76201;BME280;64981;52.930;9.266;2023-04-25T01:54:12;100382.63;;;7.29;72.19
76201;BME280;64981;52.930;9.266;2023-04-25T01:56:39;100385.28;;;7.29;72.09
76201;BME280;64981;52.930;9.266;2023-04-25T01:59:05;100391.59;;;7.36;71.78
76201;BME280;64981;52.930;9.266;2023-04-25T02:01:31;100384.38;;;7.21;71.86
76201;BME280;64981;52.930;9.266;2023-04-25T02:03:57;100393.06;;;7.21;71.17
76201;BME280;64981;52.930;9.266;2023-04-25T02:06:23;100388.84;;;7.10;71.95
76201;BME280;64981;52.930;9.266;2023-04-25T02:08:48;100399.72;;;7.16;70.82
76201;BME280;64981;52.930;9.266;2023-04-25T02:11:14;100398.31;;;7.21;70.44
76201;BME280;64981;52.930;9.266;2023-04-25T02:13:39;100404.84;;;7.17;70.44
76201;BME280;64981;52.930;9.266;2023-04-25T02:16:05;100401.88;;;7.02;69.73
76201;BME280;64981;52.930;9.266;2023-04-25T02:18:31;100402.03;;;7.01;70.40
76201;BME280;64981;52.930;9.266;2023-04-25T02:20:59;100400.88;;;6.86;70.65
76201;BME280;64981;52.930;9.266;2023-04-25T02:23:26;100407.78;;;6.87;70.50
76201;BME280;64981;52.930;9.266;2023-04-25T02:25:52;100418.72;;;6.82;70.09
76201;BME280;64981;52.930;9.266;2023-04-25T02:28:18;100419.03;;;6.70;70.52
76201;BME280;64981;52.930;9.266;2023-04-25T02:30:43;100414.09;;;6.94;69.82
76201;BME280;64981;52.930;9.266;2023-04-25T02:33:09;100412.72;;;6.90;70.41
76201;BME280;64981;52.930;9.266;2023-04-25T02:35:35;100413.28;;;6.93;70.15
76201;BME280;64981;52.930;9.266;2023-04-25T02:38:01;100408.06;;;6.84;70.45
76201;BME280;64981;52.930;9.266;2023-04-25T02:40:26;100408.25;;;6.73;69.47
76201;BME280;64981;52.930;9.266;2023-04-25T02:42:52;100407.28;;;7.01;68.90
76201;BME280;64981;52.930;9.266;2023-04-25T02:45:17;100402.53;;;6.87;68.43
76201;BME280;64981;52.930;9.266;2023-04-25T02:47:43;100405.97;;;6.87;68.07
76201;BME280;64981;52.930;9.266;2023-04-25T02:50:10;100401.03;;;6.84;67.76
76201;BME280;64981;52.930;9.266;2023-04-25T02:52:35;100388.66;;;6.67;68.36
76201;BME280;64981;52.930;9.266;2023-04-25T02:55:01;100410.56;;;6.85;67.78
76201;BME280;64981;52.930;9.266;2023-04-25T02:57:26;100395.78;;;6.75;68.29
76201;BME280;64981;52.930;9.266;2023-04-25T02:59:52;100400.13;;;6.93;68.52
76201;BME280;64981;52.930;9.266;2023-04-25T03:02:17;100389.69;;;6.84;69.80
76201;BME280;64981;52.930;9.266;2023-04-25T03:04:43;100390.53;;;6.84;69.44
76201;BME280;64981;52.930;9.266;2023-04-25T03:07:08;100394.16;;;6.74;70.38
76201;BME280;64981;52.930;9.266;2023-04-25T03:09:34;100408.28;;;6.63;70.32
76201;BME280;64981;52.930;9.266;2023-04-25T03:12:00;100409.06;;;6.73;69.67
76201;BME280;64981;52.930;9.266;2023-04-25T03:14:26;100410.25;;;6.61;69.99
76201;BME280;64981;52.930;9.266;2023-04-25T03:16:52;100418.78;;;6.63;69.92
76201;BME280;64981;52.930;9.266;2023-04-25T03:19:17;100420.44;;;6.64;70.51
76201;BME280;64981;52.930;9.266;2023-04-25T03:21:44;100421.50;;;6.71;69.51
76201;BME280;64981;52.930;9.266;2023-04-25T03:24:10;100423.44;;;6.69;70.26
76201;BME280;64981;52.930;9.266;2023-04-25T03:26:36;100417.59;;;6.48;70.82
76201;BME280;64981;52.930;9.266;2023-04-25T03:29:02;100419.59;;;6.64;70.10
76201;BME280;64981;52.930;9.266;2023-04-25T03:31:27;100422.50;;;6.70;69.89
76201;BME280;64981;52.930;9.266;2023-04-25T03:33:53;100424.31;;;6.60;70.44
76201;BME280;64981;52.930;9.266;2023-04-25T03:36:18;100425.19;;;6.51;70.74
76201;BME280;64981;52.930;9.266;2023-04-25T03:38:44;100430.31;;;6.33;70.97
76201;BME280;64981;52.930;9.266;2023-04-25T03:41:10;100432.28;;;6.31;71.25
76201;BME280;64981;52.930;9.266;2023-04-25T03:43:35;100431.88;;;6.26;70.87
76201;BME280;64981;52.930;9.266;2023-04-25T03:46:01;100437.50;;;6.41;70.91
76201;BME280;64981;52.930;9.266;2023-04-25T03:48:26;100439.28;;;6.40;70.96
76201;BME280;64981;52.930;9.266;2023-04-25T03:50:53;100439.03;;;6.34;71.00
76201;BME280;64981;52.930;9.266;2023-04-25T03:53:18;100457.09;;;6.37;70.91
76201;BME280;64981;52.930;9.266;2023-04-25T03:55:44;100460.28;;;6.40;70.80
76201;BME280;64981;52.930;9.266;2023-04-25T03:58:09;100466.75;;;6.36;71.22
76201;BME280;64981;52.930;9.266;2023-04-25T04:00:36;100458.34;;;6.42;71.09
76201;BME280;64981;52.930;9.266;2023-04-25T04:03:01;100470.78;;;6.40;70.94
76201;BME280;64981;52.930;9.266;2023-04-25T04:05:27;100449.50;;;6.43;70.01
76201;BME280;64981;52.930;9.266;2023-04-25T04:07:54;100464.94;;;6.56;69.95
76201;BME280;64981;52.930;9.266;2023-04-25T04:10:19;100459.72;;;6.37;69.95
76201;BME280;64981;52.930;9.266;2023-04-25T04:12:45;100475.41;;;6.56;69.92
76201;BME280;64981;52.930;9.266;2023-04-25T04:15:11;100471.59;;;6.41;69.48
76201;BME280;64981;52.930;9.266;2023-04-25T04:17:37;100474.91;;;6.43;69.57
76201;BME280;64981;52.930;9.266;2023-04-25T04:20:03;100494.22;;;6.51;69.17
76201;BME280;64981;52.930;9.266;2023-04-25T04:22:29;100469.25;;;6.38;68.92
76201;BME280;64981;52.930;9.266;2023-04-25T04:24:54;100490.50;;;6.44;69.93
76201;BME280;64981;52.930;9.266;2023-04-25T04:27:22;100492.31;;;6.44;69.51
76201;BME280;64981;52.930;9.266;2023-04-25T04:29:49;100480.88;;;6.35;69.83
76201;BME280;64981;52.930;9.266;2023-04-25T04:32:16;100500.06;;;6.36;69.85
76201;BME280;64981;52.930;9.266;2023-04-25T04:34:42;100487.22;;;6.33;69.68
76201;BME280;64981;52.930;9.266;2023-04-25T04:37:08;100501.31;;;6.22;70.62
76201;BME280;64981;52.930;9.266;2023-04-25T04:39:35;100510.13;;;6.40;70.53
76201;BME280;64981;52.930;9.266;2023-04-25T04:42:01;100512.59;;;6.51;70.35
76201;BME280;64981;52.930;9.266;2023-04-25T04:44:27;100511.19;;;6.57;70.16
76201;BME280;64981;52.930;9.266;2023-04-25T04:46:54;100509.13;;;6.61;69.87
76201;BME280;64981;52.930;9.266;2023-04-25T04:49:20;100511.59;;;6.52;69.90
76201;BME280;64981;52.930;9.266;2023-04-25T04:51:46;100517.72;;;6.43;69.56
76201;BME280;64981;52.930;9.266;2023-04-25T04:54:12;100508.31;;;6.41;69.52
76201;BME280;64981;52.930;9.266;2023-04-25T04:56:38;100526.78;;;6.58;69.82
76201;BME280;64981;52.930;9.266;2023-04-25T04:59:03;100528.88;;;6.55;69.71
76201;BME280;64981;52.930;9.266;2023-04-25T05:01:29;100532.28;;;6.65;68.71
76201;BME280;64981;52.930;9.266;2023-04-25T05:03:56;100527.31;;;6.72;68.84
76201;BME280;64981;52.930;9.266;2023-04-25T05:06:27;100513.00;;;6.56;68.81
76201;BME280;64981;52.930;9.266;2023-04-25T05:08:55;100534.22;;;6.82;68.57
76201;BME280;64981;52.930;9.266;2023-04-25T05:11:21;100533.69;;;6.69;68.55
76201;BME280;64981;52.930;9.266;2023-04-25T05:13:47;100532.28;;;6.84;68.12
76201;BME280;64981;52.930;9.266;2023-04-25T05:16:13;100530.88;;;6.90;67.36
76201;BME280;64981;52.930;9.266;2023-04-25T05:18:39;100522.22;;;6.70;67.30
76201;BME280;64981;52.930;9.266;2023-04-25T05:21:05;100538.97;;;7.06;66.60
76201;BME280;64981;52.930;9.266;2023-04-25T05:23:32;100531.41;;;6.93;66.59
76201;BME280;64981;52.930;9.266;2023-04-25T05:25:59;100543.34;;;7.15;65.71
76201;BME280;64981;52.930;9.266;2023-04-25T05:28:25;100544.06;;;7.17;65.67
76201;BME280;64981;52.930;9.266;2023-04-25T05:30:50;100543.81;;;7.38;65.63
76201;BME280;64981;52.930;9.266;2023-04-25T05:33:16;100544.91;;;7.62;65.18
76201;BME280;64981;52.930;9.266;2023-04-25T05:35:42;100549.44;;;7.70;62.68
76201;BME280;64981;52.930;9.266;2023-04-25T05:38:07;100548.63;;;7.87;62.04
76201;BME280;64981;52.930;9.266;2023-04-25T05:40:33;100547.28;;;7.83;61.35
76201;BME280;64981;52.930;9.266;2023-04-25T05:42:59;100547.78;;;7.69;61.96
76201;BME280;64981;52.930;9.266;2023-04-25T05:45:25;100550.75;;;7.56;62.78
76201;BME280;64981;52.930;9.266;2023-04-25T05:47:50;100543.81;;;7.38;62.71
76201;BME280;64981;52.930;9.266;2023-04-25T05:50:16;100553.69;;;7.53;62.67
76201;BME280;64981;52.930;9.266;2023-04-25T05:52:42;100557.63;;;7.67;62.56
76201;BME280;64981;52.930;9.266;2023-04-25T05:55:08;100551.00;;;7.63;61.35
76201;BME280;64981;52.930;9.266;2023-04-25T05:57:34;100565.94;;;7.62;60.52
76201;BME280;64981;52.930;9.266;2023-04-25T05:59:59;100564.88;;;7.55;61.58
76201;BME280;64981;52.930;9.266;2023-04-25T06:02:25;100567.22;;;7.31;61.65
76201;BME280;64981;52.930;9.266;2023-04-25T06:04:52;100556.22;;;7.45;61.73
76201;BME280;64981;52.930;9.266;2023-04-25T06:07:19;100572.38;;;7.50;61.72
76201;BME280;64981;52.930;9.266;2023-04-25T06:09:45;100590.47;;;7.53;61.71
76201;BME280;64981;52.930;9.266;2023-04-25T06:12:11;100578.78;;;7.65;61.46
76201;BME280;64981;52.930;9.266;2023-04-25T06:14:37;100605.31;;;7.72;61.85
76201;BME280;64981;52.930;9.266;2023-04-25T06:17:03;100587.75;;;7.73;60.28
76201;BME280;64981;52.930;9.266;2023-04-25T06:19:34;100601.16;;;7.97;60.15
76201;BME280;64981;52.930;9.266;2023-04-25T06:22:01;100579.56;;;7.93;60.01
76201;BME280;64981;52.930;9.266;2023-04-25T06:24:27;100592.91;;;8.27;59.29
76201;BME280;64981;52.930;9.266;2023-04-25T06:26:53;100582.28;;;8.37;58.68
76201;BME280;64981;52.930;9.266;2023-04-25T06:29:20;100606.81;;;8.55;58.77
76201;BME280;64981;52.930;9.266;2023-04-25T06:31:45;100583.47;;;8.60;57.85
76201;BME280;64981;52.930;9.266;2023-04-25T06:34:11;100595.81;;;8.77;57.83
76201;BME280;64981;52.930;9.266;2023-04-25T06:36:37;100597.75;;;8.93;57.44
76201;BME280;64981;52.930;9.266;2023-04-25T06:39:02;100572.56;;;9.24;56.05
76201;BME280;64981;52.930;9.266;2023-04-25T06:41:28;100600.03;;;9.55;55.29
76201;BME280;64981;52.930;9.266;2023-04-25T06:43:54;100600.16;;;9.96;54.65
76201;BME280;64981;52.930;9.266;2023-04-25T06:46:20;100602.72;;;10.21;53.27
76201;BME280;64981;52.930;9.266;2023-04-25T06:48:45;100611.50;;;10.46;52.95
76201;BME280;64981;52.930;9.266;2023-04-25T06:51:11;100609.81;;;10.53;51.99
76201;BME280;64981;52.930;9.266;2023-04-25T06:53:39;100614.91;;;11.11;51.06
76201;BME280;64981;52.930;9.266;2023-04-25T06:56:04;100593.56;;;11.13;49.83
76201;BME280;64981;52.930;9.266;2023-04-25T06:58:30;100592.31;;;11.48;49.53
76201;BME280;64981;52.930;9.266;2023-04-25T07:00:56;100611.59;;;11.17;50.35
76201;BME280;64981;52.930;9.266;2023-04-25T07:03:21;100616.66;;;11.35;49.72
76201;BME280;64981;52.930;9.266;2023-04-25T07:05:47;100607.97;;;11.57;48.68
76201;BME280;64981;52.930;9.266;2023-04-25T07:08:13;100608.50;;;11.53;48.47
76201;BME280;64981;52.930;9.266;2023-04-25T07:10:38;100608.38;;;11.46;49.33
76201;BME280;64981;52.930;9.266;2023-04-25T07:13:04;100590.53;;;11.79;47.74
76201;BME280;64981;52.930;9.266;2023-04-25T07:15:30;100609.19;;;12.16;47.67
76201;BME280;64981;52.930;9.266;2023-04-25T07:17:55;100613.00;;;12.14;47.96
76201;BME280;64981;52.930;9.266;2023-04-25T07:20:21;100619.75;;;11.94;47.72
76201;BME280;64981;52.930;9.266;2023-04-25T07:22:47;100605.91;;;11.83;48.04
76201;BME280;64981;52.930;9.266;2023-04-25T07:25:12;100627.66;;;11.55;49.84
76201;BME280;64981;52.930;9.266;2023-04-25T07:27:39;100628.06;;;11.35;49.37
76201;BME280;64981;52.930;9.266;2023-04-25T07:30:09;100631.25;;;11.07;49.08
76201;BME280;64981;52.930;9.266;2023-04-25T07:32:35;100638.56;;;10.89;48.99
76201;BME280;64981;52.930;9.266;2023-04-25T07:35:01;100632.47;;;10.56;49.76
76201;BME280;64981;52.930;9.266;2023-04-25T07:37:27;100633.59;;;10.45;50.35
76201;BME280;64981;52.930;9.266;2023-04-25T07:39:52;100644.84;;;9.97;50.94
76201;BME280;64981;52.930;9.266;2023-04-25T07:42:18;100637.38;;;9.76;49.65
76201;BME280;64981;52.930;9.266;2023-04-25T07:44:43;100648.00;;;9.59;50.77
76201;BME280;64981;52.930;9.266;2023-04-25T07:47:10;100636.91;;;9.47;51.55
76201;BME280;64981;52.930;9.266;2023-04-25T07:49:36;100647.81;;;9.52;52.17
76201;BME280;64981;52.930;9.266;2023-04-25T07:52:03;100651.22;;;9.45;52.10
76201;BME280;64981;52.930;9.266;2023-04-25T07:54:29;100657.84;;;9.49;51.85
76201;BME280;64981;52.930;9.266;2023-04-25T07:56:55;100651.19;;;9.37;52.17
76201;BME280;64981;52.930;9.266;2023-04-25T07:59:21;100659.94;;;9.11;52.36
76201;BME280;64981;52.930;9.266;2023-04-25T08:01:47;100652.97;;;9.02;52.34
76201;BME280;64981;52.930;9.266;2023-04-25T08:04:13;100657.13;;;9.13;51.78
76201;BME280;64981;52.930;9.266;2023-04-25T08:06:38;100663.97;;;9.23;51.40
76201;BME280;64981;52.930;9.266;2023-04-25T08:09:06;100658.06;;;9.30;52.60
76201;BME280;64981;52.930;9.266;2023-04-25T08:11:32;100674.00;;;9.54;51.66
76201;BME280;64981;52.930;9.266;2023-04-25T08:13:57;100677.88;;;9.67;51.14
76201;BME280;64981;52.930;9.266;2023-04-25T08:16:23;100682.44;;;9.91;51.67
76201;BME280;64981;52.930;9.266;2023-04-25T08:18:50;100679.34;;;10.04;51.70
76201;BME280;64981;52.930;9.266;2023-04-25T08:21:16;100681.41;;;10.26;51.57
76201;BME280;64981;52.930;9.266;2023-04-25T08:23:41;100673.72;;;10.57;49.32
76201;BME280;64981;52.930;9.266;2023-04-25T08:26:07;100676.22;;;10.99;50.13
76201;BME280;64981;52.930;9.266;2023-04-25T08:28:33;100687.28;;;11.02;46.73
76201;BME280;64981;52.930;9.266;2023-04-25T08:30:59;100683.59;;;11.44;46.93
76201;BME280;64981;52.930;9.266;2023-04-25T08:33:25;100681.59;;;11.37;45.31
76201;BME280;64981;52.930;9.266;2023-04-25T08:35:51;100684.69;;;11.57;44.97
76201;BME280;64981;52.930;9.266;2023-04-25T08:38:18;100682.03;;;11.57;43.58
76201;BME280;64981;52.930;9.266;2023-04-25T08:40:44;100699.75;;;11.49;44.98
76201;BME280;64981;52.930;9.266;2023-04-25T08:43:13;100693.25;;;11.75;43.50
76201;BME280;64981;52.930;9.266;2023-04-25T08:45:41;100695.63;;;11.54;43.85
76201;BME280;64981;52.930;9.266;2023-04-25T08:48:11;100705.22;;;11.63;43.14
76201;BME280;64981;52.930;9.266;2023-04-25T08:50:53;100699.91;;;11.55;43.69
76201;BME280;64981;52.930;9.266;2023-04-25T08:53:24;100715.47;;;11.42;43.74
76201;BME280;64981;52.930;9.266;2023-04-25T08:55:53;100721.94;;;11.31;43.61
76201;BME280;64981;52.930;9.266;2023-04-25T08:58:19;100731.06;;;10.97;44.90
76201;BME280;64981;52.930;9.266;2023-04-25T09:00:48;100714.66;;;10.69;46.35
76201;BME280;64981;52.930;9.266;2023-04-25T09:03:16;100732.00;;;10.55;48.05
76201;BME280;64981;52.930;9.266;2023-04-25T09:05:42;100730.09;;;10.31;48.12
76201;BME280;64981;52.930;9.266;2023-04-25T09:08:08;100739.34;;;10.27;48.23
76201;BME280;64981;52.930;9.266;2023-04-25T09:10:34;100745.13;;;9.97;49.40
76201;BME280;64981;52.930;9.266;2023-04-25T09:13:13;100756.03;;;10.02;50.15
76201;BME280;64981;52.930;9.266;2023-04-25T09:15:51;100770.13;;;9.85;50.80
76201;BME280;64981;52.930;9.266;2023-04-25T09:18:32;100769.44;;;9.32;51.69
76201;BME280;64981;52.930;9.266;2023-04-25T09:21:07;100769.59;;;9.12;53.46
76201;BME280;64981;52.930;9.266;2023-04-25T09:23:48;100768.50;;;9.15;52.19
76201;BME280;64981;52.930;9.266;2023-04-25T09:26:16;100775.66;;;9.05;51.79
76201;BME280;64981;52.930;9.266;2023-04-25T09:28:42;100774.78;;;8.69;52.10
76201;BME280;64981;52.930;9.266;2023-04-25T09:31:10;100786.78;;;8.99;52.41
76201;BME280;64981;52.930;9.266;2023-04-25T09:33:37;100780.53;;;9.00;51.57
76201;BME280;64981;52.930;9.266;2023-04-25T09:36:05;100781.34;;;9.00;52.68
76201;BME280;64981;52.930;9.266;2023-04-25T09:38:40;100785.94;;;9.34;51.41
76201;BME280;64981;52.930;9.266;2023-04-25T09:41:08;100791.16;;;9.51;50.90
76201;BME280;64981;52.930;9.266;2023-04-25T09:43:35;100777.59;;;9.64;50.33
76201;BME280;64981;52.930;9.266;2023-04-25T09:46:02;100785.31;;;9.91;50.80
76201;BME280;64981;52.930;9.266;2023-04-25T09:48:28;100782.38;;;10.28;49.80
76201;BME280;64981;52.930;9.266;2023-04-25T09:51:11;100776.09;;;10.79;48.99
76201;BME280;64981;52.930;9.266;2023-04-25T09:53:41;100789.03;;;11.47;46.12
76201;BME280;64981;52.930;9.266;2023-04-25T09:56:09;100775.47;;;11.74;45.86
76201;BME280;64981;52.930;9.266;2023-04-25T09:58:37;100777.34;;;12.12;44.99
76201;BME280;64981;52.930;9.266;2023-04-25T10:01:06;100776.47;;;12.59;44.15
76201;BME280;64981;52.930;9.266;2023-04-25T10:03:34;100780.47;;;13.08;43.08
76201;BME280;64981;52.930;9.266;2023-04-25T10:06:03;100772.69;;;13.07;40.65
76201;BME280;64981;52.930;9.266;2023-04-25T10:08:32;100778.00;;;13.29;40.79
76201;BME280;64981;52.930;9.266;2023-04-25T10:11:04;100791.44;;;13.80;39.93
76201;BME280;64981;52.930;9.266;2023-04-25T10:13:31;100787.75;;;14.18;38.28
76201;BME280;64981;52.930;9.266;2023-04-25T10:15:58;100797.41;;;13.82;39.35
76201;BME280;64981;52.930;9.266;2023-04-25T10:18:26;100805.13;;;13.54;39.88
76201;BME280;64981;52.930;9.266;2023-04-25T10:20:54;100807.84;;;13.31;39.80
76201;BME280;64981;52.930;9.266;2023-04-25T10:23:21;100823.47;;;12.65;43.52
76201;BME280;64981;52.930;9.266;2023-04-25T10:25:48;100839.59;;;12.47;44.85
76201;BME280;64981;52.930;9.266;2023-04-25T10:28:14;100829.34;;;11.97;46.23
76201;BME280;64981;52.930;9.266;2023-04-25T10:30:59;100839.63;;;11.84;48.92
76201;BME280;64981;52.930;9.266;2023-04-25T10:33:42;100842.94;;;11.78;48.40
76201;BME280;64981;52.930;9.266;2023-04-25T10:36:14;100831.72;;;11.68;48.61
76201;BME280;64981;52.930;9.266;2023-04-25T10:38:42;100830.84;;;12.00;47.21
76201;BME280;64981;52.930;9.266;2023-04-25T10:41:10;100824.00;;;12.21;46.95
76201;BME280;64981;52.930;9.266;2023-04-25T10:43:41;100820.28;;;12.69;47.19
76201;BME280;64981;52.930;9.266;2023-04-25T10:46:23;100819.66;;;12.98;45.33
76201;BME280;64981;52.930;9.266;2023-04-25T10:48:51;100815.25;;;13.36;43.10
76201;BME280;64981;52.930;9.266;2023-04-25T10:51:22;100821.84;;;13.92;42.47
76201;BME280;64981;52.930;9.266;2023-04-25T10:53:58;100819.97;;;13.63;42.01
76201;BME280;64981;52.930;9.266;2023-04-25T10:56:28;100805.97;;;14.21;41.47
76201;BME280;64981;52.930;9.266;2023-04-25T10:59:12;100812.72;;;14.38;41.52
76201;BME280;64981;52.930;9.266;2023-04-25T11:01:41;100814.84;;;14.43;39.91
76201;BME280;64981;52.930;9.266;2023-04-25T11:04:23;100813.59;;;14.75;39.31
76201;BME280;64981;52.930;9.266;2023-04-25T11:07:13;100811.84;;;14.31;38.68
76201;BME280;64981;52.930;9.266;2023-04-25T11:09:44;100814.97;;;14.35;37.44
76201;BME280;64981;52.930;9.266;2023-04-25T11:12:11;100815.56;;;14.08;38.84
76201;BME280;64981;52.930;9.266;2023-04-25T11:14:38;100824.50;;;13.92;39.65
76201;BME280;64981;52.930;9.266;2023-04-25T11:17:04;100826.78;;;13.80;39.72
76201;BME280;64981;52.930;9.266;2023-04-25T11:19:31;100831.34;;;13.12;40.64
76201;BME280;64981;52.930;9.266;2023-04-25T11:21:58;100824.00;;;12.91;40.71
76201;BME280;64981;52.930;9.266;2023-04-25T11:24:30;100825.69;;;12.53;39.80
76201;BME280;64981;52.930;9.266;2023-04-25T11:26:58;100832.09;;;12.20;41.61
76201;BME280;64981;52.930;9.266;2023-04-25T11:29:29;100837.94;;;11.99;41.91
76201;BME280;64981;52.930;9.266;2023-04-25T11:31:55;100837.28;;;11.97;42.60
76201;BME280;64981;52.930;9.266;2023-04-25T11:34:24;100839.44;;;12.02;42.49
76201;BME280;64981;52.930;9.266;2023-04-25T11:36:51;100842.94;;;11.86;43.32
76201;BME280;64981;52.930;9.266;2023-04-25T11:39:19;100839.81;;;11.74;43.82
76201;BME280;64981;52.930;9.266;2023-04-25T11:41:46;100846.56;;;11.69;44.61
76201;BME280;64981;52.930;9.266;2023-04-25T11:44:12;100846.06;;;11.81;45.17
76201;BME280;64981;52.930;9.266;2023-04-25T11:46:42;100854.00;;;12.06;45.61
76201;BME280;64981;52.930;9.266;2023-04-25T11:49:07;100853.47;;;12.65;45.86
76201;BME280;64981;52.930;9.266;2023-04-25T11:51:48;100843.03;;;12.94;44.42
76201;BME280;64981;52.930;9.266;2023-04-25T11:54:15;100839.81;;;13.52;43.24
76201;BME280;64981;52.930;9.266;2023-04-25T11:56:43;100847.16;;;13.88;43.01
76201;BME280;64981;52.930;9.266;2023-04-25T11:59:09;100846.28;;;13.73;44.44
76201;BME280;64981;52.930;9.266;2023-04-25T12:01:38;100850.78;;;14.24;43.16
76201;BME280;64981;52.930;9.266;2023-04-25T12:04:15;100873.59;;;13.96;43.23
76201;BME280;64981;52.930;9.266;2023-04-25T12:06:43;100865.19;;;13.92;43.50
76201;BME280;64981;52.930;9.266;2023-04-25T12:09:11;100893.00;;;13.36;42.82
76201;BME280;64981;52.930;9.266;2023-04-25T12:11:47;100903.38;;;12.45;43.19
76201;BME280;64981;52.930;9.266;2023-04-25T12:14:23;100908.22;;;12.10;44.11
76201;BME280;64981;52.930;9.266;2023-04-25T12:16:51;100912.38;;;11.56;46.25
76201;BME280;64981;52.930;9.266;2023-04-25T12:19:18;100923.47;;;10.93;48.32
76201;BME280;64981;52.930;9.266;2023-04-25T12:21:44;100934.88;;;10.60;50.11
76201;BME280;64981;52.930;9.266;2023-04-25T12:24:12;100934.41;;;10.64;51.07
76201;BME280;64981;52.930;9.266;2023-04-25T12:26:50;100936.13;;;10.48;52.27
76201;BME280;64981;52.930;9.266;2023-04-25T12:29:21;100926.16;;;9.72;55.68
76201;BME280;64981;52.930;9.266;2023-04-25T12:31:47;100922.13;;;10.04;54.99
76201;BME280;64981;52.930;9.266;2023-04-25T12:34:13;100917.16;;;10.01;54.09
76201;BME280;64981;52.930;9.266;2023-04-25T12:36:40;100925.03;;;9.57;54.57
76201;BME280;64981;52.930;9.266;2023-04-25T12:39:05;100922.69;;;9.72;54.33
76201;BME280;64981;52.930;9.266;2023-04-25T12:41:32;100926.31;;;9.71;53.29
76201;BME280;64981;52.930;9.266;2023-04-25T12:43:57;100917.72;;;9.69;53.08
76201;BME280;64981;52.930;9.266;2023-04-25T12:46:23;100908.56;;;9.99;51.76
76201;BME280;64981;52.930;9.266;2023-04-25T12:48:49;100909.28;;;10.60;51.31
76201;BME280;64981;52.930;9.266;2023-04-25T12:51:15;100909.66;;;11.15;49.50
76201;BME280;64981;52.930;9.266;2023-04-25T12:53:40;100913.88;;;11.66;51.68
76201;BME280;64981;52.930;9.266;2023-04-25T12:56:07;100902.91;;;12.34;47.76
76201;BME280;64981;52.930;9.266;2023-04-25T12:58:34;100906.09;;;12.84;45.78